Time;durP1;ratioP1;P1;durP2;ratioP2;P2;SDS_P1;SDS_P2;PMS_P1;PMS_P2;Temp;Humidity;BMP_temperature;BMP_pressure;BME280_temperature;BME280_humidity;BME280_pressure;Samples;Min_cycle;Max_cycle;Signal;HPM_P1;HPM_P2
2023/04/13 00:01:21;;;;;;;54.10;30.50;;;;;;;5.69;83.00;99642.02;105329;1256;98449;-75
2023/04/13 00:04:06;;;;;;;55.40;30.80;;;;;;;5.62;83.18;99643.58;105259;1259;97209;-75
2023/04/13 00:06:52;;;;;;;45.70;29.40;;;;;;;5.57;82.98;99642.21;105298;1259;96814;-75
2023/04/13 00:09:37;;;;;;;48.10;29.10;;;;;;;5.52;82.96;99640.00;105357;1257;100038;-76
2023/04/13 00:12:25;;;;;;;52.50;31.40;;;;;;;5.49;82.86;99643.30;105323;1259;100338;-75
2023/04/13 00:15:10;;;;;;;49.70;30.00;;;;;;;5.47;82.79;99640.73;105294;1257;97712;-75
2023/04/13 00:17:56;;;;;;;51.40;30.30;;;;;;;5.45;82.56;99640.65;105388;1259;97072;-75
2023/04/13 00:20:42;;;;;;;57.40;32.50;;;;;;;5.41;82.59;99636.36;105187;1257;98311;-75
2023/04/13 00:23:28;;;;;;;51.60;30.60;;;;;;;5.36;82.49;99634.54;105185;1259;101211;-75
2023/04/13 00:26:14;;;;;;;49.60;30.50;;;;;;;5.33;82.54;99637.55;105333;1259;100174;-76
2023/04/13 00:28:59;;;;;;;47.70;28.90;;;;;;;5.30;82.66;99636.14;105285;1257;98345;-75
2023/04/13 00:31:45;;;;;;;49.70;30.70;;;;;;;5.29;82.74;99633.16;105411;1256;96501;-76
2023/04/13 00:34:30;;;;;;;52.50;31.90;;;;;;;5.26;82.86;99632.21;105297;1259;97804;-74
2023/04/13 00:37:19;;;;;;;45.20;27.70;;;;;;;5.23;82.78;99631.01;105448;1257;100007;-74
2023/04/13 00:40:06;;;;;;;45.90;30.20;;;;;;;5.20;82.83;99628.67;106752;1257;99150;-75
2023/04/13 00:42:52;;;;;;;49.40;30.60;;;;;;;5.16;83.22;99632.03;105246;1259;99025;-75
2023/04/13 00:45:38;;;;;;;47.70;29.70;;;;;;;5.13;83.19;99631.10;105288;1257;97130;-74
2023/04/13 00:48:24;;;;;;;43.70;27.10;;;;;;;5.08;83.37;99631.01;105312;1259;97149;-74
2023/04/13 00:51:12;;;;;;;46.00;28.70;;;;;;;5.02;83.41;99627.92;105240;1275;100904;-74
2023/04/13 00:53:58;;;;;;;52.40;29.90;;;;;;;4.99;83.41;99624.92;105331;1257;100564;-74
2023/04/13 00:56:43;;;;;;;47.00;29.90;;;;;;;4.98;83.65;99626.98;105274;1257;97856;-75
2023/04/13 00:59:29;;;;;;;48.90;29.50;;;;;;;4.97;83.78;99623.97;105290;1261;97106;-76
2023/04/13 01:02:15;;;;;;;43.10;26.90;;;;;;;4.93;83.75;99619.25;105189;1256;97128;-76
2023/04/13 01:05:03;;;;;;;39.80;26.60;;;;;;;4.88;83.83;99616.82;105316;1259;102220;-76
2023/04/13 01:08:18;;;;;;;49.60;29.10;;;;;;;4.83;83.50;99614.73;105230;1262;100341;-75
2023/04/13 01:11:09;;;;;;;46.80;27.80;;;;;;;4.79;83.67;99611.83;98045;1257;10002960;-75
2023/04/13 01:14:29;;;;;;;46.00;27.60;;;;;;;4.76;83.67;99601.89;105266;1256;101719;-74
2023/04/13 01:17:24;;;;;;;44.30;26.80;;;;;;;4.77;83.83;99599.58;105313;1260;100494;-75
2023/04/13 01:20:14;;;;;;;45.50;27.50;;;;;;;4.75;83.99;99599.13;105206;1262;99909;-74
2023/04/13 01:23:03;;;;;;;38.30;26.30;;;;;;;4.73;84.19;99598.36;105208;1262;96597;-75
2023/04/13 01:26:05;;;;;;;47.20;28.60;;;;;;;4.71;84.21;99596.13;105276;1262;97718;-76
2023/04/13 01:28:52;;;;;;;44.80;27.80;;;;;;;4.68;84.04;99596.27;105184;1257;100725;-75
2023/04/13 01:31:38;;;;;;;49.80;30.00;;;;;;;4.66;83.86;99593.99;105212;1257;99079;-75
2023/04/13 01:34:24;;;;;;;50.90;29.90;;;;;;;4.65;83.95;99593.94;105255;1257;98686;-75
2023/04/13 01:37:09;;;;;;;51.00;29.40;;;;;;;4.65;84.14;99593.66;105170;1262;96679;-75
2023/04/13 01:39:55;;;;;;;50.70;32.20;;;;;;;4.64;84.24;99593.54;105245;1262;97084;-74
2023/04/13 01:42:47;;;;;;;49.10;29.30;;;;;;;4.62;84.46;99589.58;105271;1262;99978;-74
2023/04/13 01:45:42;;;;;;;49.70;30.20;;;;;;;4.58;84.23;99584.55;105091;1257;100302;-74
2023/04/13 01:48:34;;;;;;;49.70;31.00;;;;;;;4.54;84.28;99585.48;105267;1257;97712;-75
2023/04/13 01:51:33;;;;;;;40.80;25.70;;;;;;;4.54;84.44;99587.48;105341;1259;96615;-75
2023/04/13 01:54:24;;;;;;;37.70;24.80;;;;;;;4.53;84.44;99583.21;105320;1256;96661;-75
2023/04/13 01:57:12;;;;;;;40.30;25.20;;;;;;;4.49;84.45;99580.09;105755;1259;100089;-75
2023/04/13 01:59:57;;;;;;;42.10;26.10;;;;;;;4.45;84.45;99576.98;105158;1259;99981;-75
2023/04/13 02:02:43;;;;;;;49.30;26.50;;;;;;;4.40;84.42;99575.45;105527;1256;97784;-76
2023/04/13 02:05:30;;;;;;;45.90;27.80;;;;;;;4.34;84.47;99577.08;105346;1259;96604;-76
2023/04/13 02:08:19;;;;;;;49.60;30.10;;;;;;;4.33;84.74;99580.86;105188;1257;124020;-75
2023/04/13 02:11:07;;;;;;;52.10;30.40;;;;;;;4.31;85.18;99583.70;105203;1261;101000;-75
2023/04/13 02:13:56;;;;;;;53.30;31.10;;;;;;;4.29;85.41;99588.36;105242;1262;99057;-75
2023/04/13 02:16:41;;;;;;;54.30;30.50;;;;;;;4.29;85.69;99590.38;105376;1257;97746;-75
2023/04/13 02:19:27;;;;;;;53.20;32.50;;;;;;;4.27;85.96;99592.46;105257;1262;96521;-75
2023/04/13 02:22:14;;;;;;;53.80;31.60;;;;;;;4.27;86.05;99591.11;105270;1260;96400;-76
2023/04/13 02:24:59;;;;;;;51.10;31.70;;;;;;;4.28;86.06;99595.41;105285;1259;99966;-75
2023/04/13 02:27:45;;;;;;;51.30;32.00;;;;;;;4.30;86.04;99598.02;105326;1259;99134;-76
2023/04/13 02:30:30;;;;;;;54.10;31.90;;;;;;;4.29;85.89;99599.48;105184;1261;99987;-76
2023/04/13 02:33:18;;;;;;;64.20;35.90;;;;;;;4.28;85.90;99599.85;105223;1259;96674;-75
2023/04/13 02:36:04;;;;;;;58.40;35.60;;;;;;;4.28;86.10;99597.36;105269;1262;96515;-75
2023/04/13 02:38:53;;;;;;;48.60;31.20;;;;;;;4.28;86.04;99599.65;105143;1257;100126;-74
2023/04/13 02:41:50;;;;;;;48.60;28.50;;;;;;;4.28;86.06;99597.37;105188;1259;99386;-75
2023/04/13 02:44:39;;;;;;;51.90;30.60;;;;;;;4.27;86.16;99603.98;105286;1259;97746;-75
2023/04/13 02:47:26;;;;;;;53.20;32.30;;;;;;;4.26;85.98;99608.71;105177;1262;96609;-74
2023/04/13 02:50:12;;;;;;;58.40;35.80;;;;;;;4.24;85.92;99611.73;105255;1257;97136;-74
2023/04/13 02:53:04;;;;;;;63.50;37.60;;;;;;;4.23;85.75;99617.34;105223;1262;101274;-75
2023/04/13 02:55:52;;;;;;;60.60;34.80;;;;;;;4.23;85.68;99621.61;105244;1269;99534;-75
2023/04/13 02:58:38;;;;;;;60.80;35.00;;;;;;;4.21;85.58;99629.53;105482;1257;97694;-75
2023/04/13 03:01:28;;;;;;;56.80;34.50;;;;;;;4.20;85.47;99637.85;105221;1262;96905;-75
2023/04/13 03:04:14;;;;;;;63.10;37.00;;;;;;;4.18;85.55;99641.39;105156;1262;97874;-75
2023/04/13 03:07:03;;;;;;;61.10;36.50;;;;;;;4.17;85.61;99645.95;105195;1260;101256;-75
2023/04/13 03:09:51;;;;;;;60.90;36.70;;;;;;;4.14;85.86;99654.02;105250;1259;100218;-75
2023/04/13 03:12:37;;;;;;;58.20;34.90;;;;;;;4.14;86.28;99664.70;105226;1270;98186;-76
2023/04/13 03:15:23;;;;;;;53.60;34.20;;;;;;;4.14;86.54;99666.79;105208;1262;96812;-74
2023/04/13 03:18:09;;;;;;;62.30;34.50;;;;;;;4.11;86.25;99672.41;105483;1257;97048;-74
2023/04/13 03:20:55;;;;;;;51.50;31.40;;;;;;;4.09;86.56;99676.88;105286;1262;99968;-75
2023/04/13 03:23:42;;;;;;;58.80;31.30;;;;;;;4.08;86.91;99675.11;105190;1269;99071;-75
2023/04/13 03:26:29;;;;;;;56.50;32.00;;;;;;;4.07;87.26;99671.05;105218;1257;98557;-75
2023/04/13 03:29:16;;;;;;;56.70;34.60;;;;;;;4.08;87.50;99668.51;105313;1257;97103;-76
2023/04/13 03:32:04;;;;;;;52.80;33.00;;;;;;;4.07;87.59;99667.70;105338;1259;97118;-76
2023/04/13 03:34:50;;;;;;;57.90;32.10;;;;;;;4.06;87.72;99668.35;105198;1259;100060;-75
2023/04/13 03:37:41;;;;;;;56.30;33.40;;;;;;;4.06;87.85;99672.23;107351;1257;99861;-75
2023/04/13 03:40:34;;;;;;;62.10;33.70;;;;;;;4.09;88.51;99675.30;105249;1257;98600;-75
2023/04/13 03:43:19;;;;;;;53.10;32.50;;;;;;;4.11;88.87;99674.14;105132;1262;96701;-76
2023/04/13 03:46:11;;;;;;;49.70;32.50;;;;;;;4.14;88.86;99676.63;105077;1257;96599;-75
2023/04/13 03:48:57;;;;;;;57.00;33.20;;;;;;;4.16;88.86;99678.28;105274;1257;99934;-75
2023/04/13 03:51:45;;;;;;;52.00;32.10;;;;;;;4.16;88.95;99683.38;105235;1262;99070;-75
2023/04/13 03:54:32;;;;;;;46.10;28.70;;;;;;;4.17;89.28;99685.48;105345;1259;98955;-75
2023/04/13 03:57:20;;;;;;;52.40;31.20;;;;;;;4.20;89.34;99688.34;105327;1262;96621;-74
2023/04/13 04:00:10;;;;;;;46.30;28.90;;;;;;;4.23;89.60;99683.23;105182;1257;97070;-75
2023/04/13 04:03:24;;;;;;;55.50;31.30;;;;;;;4.27;89.79;99681.19;105138;1263;101102;-75
2023/04/13 04:06:23;;;;;;;50.70;29.90;;;;;;;4.32;90.24;99678.73;105203;1262;100481;-75
2023/04/13 04:09:13;;;;;;;47.20;28.70;;;;;;;4.35;90.56;99677.83;105084;1262;98568;-74
2023/04/13 04:12:01;;;;;;;50.00;28.90;;;;;;;4.37;90.59;99683.13;105050;1262;96616;-74
2023/04/13 04:14:55;;;;;;;50.20;28.40;;;;;;;4.37;90.51;99681.14;105078;1263;96576;-75
2023/04/13 04:17:44;;;;;;;44.60;26.90;;;;;;;4.39;90.43;99680.18;105077;1262;101199;-75
2023/04/13 04:20:30;;;;;;;48.20;29.40;;;;;;;4.41;90.34;99680.18;105202;1257;99098;-75
2023/04/13 04:23:16;;;;;;;43.90;26.00;;;;;;;4.42;90.44;99681.63;105117;1262;97736;-77
2023/04/13 04:26:07;;;;;;;53.00;29.90;;;;;;;4.43;90.34;99679.28;105193;1262;96644;-75
2023/04/13 04:29:06;;;;;;;56.70;31.80;;;;;;;4.44;90.57;99677.48;105130;1262;97205;-76
2023/04/13 04:31:52;;;;;;;127.40;54.30;;;;;;;4.47;90.58;99675.49;105206;1256;100030;-77
2023/04/13 04:34:40;;;;;;;172.70;70.80;;;;;;;4.48;90.87;99671.62;105594;1263;101297;-76
2023/04/13 04:37:27;;;;;;;110.80;52.00;;;;;;;4.51;90.98;99669.64;105138;1266;98770;-77
2023/04/13 04:40:21;;;;;;;73.40;41.80;;;;;;;4.55;91.01;99673.43;105096;1257;96734;-77
2023/04/13 04:43:07;;;;;;;66.70;36.80;;;;;;;4.59;91.31;99676.67;106308;1257;96871;-76
2023/04/13 04:45:57;;;;;;;65.80;36.70;;;;;;;4.63;91.32;99680.02;97810;1262;10002914;-75
2023/04/13 04:48:46;;;;;;;70.10;40.50;;;;;;;4.66;91.43;99680.50;105108;1262;98954;-75
2023/04/13 04:51:34;;;;;;;80.30;42.20;;;;;;;4.72;91.65;99677.96;105268;1257;97525;-75
2023/04/13 04:54:21;;;;;;;102.20;53.50;;;;;;;4.76;91.65;99671.50;105186;1264;97141;-74
2023/04/13 04:57:09;;;;;;;69.70;39.10;;;;;;;4.79;91.69;99669.14;105195;1257;100035;-75
2023/04/13 04:59:56;;;;;;;58.20;33.40;;;;;;;4.82;91.90;99665.09;105345;1262;99077;-75
2023/04/13 05:02:42;;;;;;;61.50;35.50;;;;;;;4.84;92.36;99663.64;105329;1257;98949;-75
2023/04/13 05:05:29;;;;;;;59.00;35.90;;;;;;;4.86;92.72;99659.39;105368;1259;96612;-75
2023/04/13 05:08:16;;;;;;;61.10;35.60;;;;;;;4.88;93.21;99657.13;105253;1262;97763;-76
2023/04/13 05:11:06;;;;;;;57.90;36.90;;;;;;;4.93;93.31;99653.39;105168;1263;101216;-75
2023/04/13 05:13:57;;;;;;;74.00;42.10;;;;;;;5.01;93.95;99651.29;107127;1259;99182;-76
2023/04/13 05:16:44;;;;;;;65.50;38.40;;;;;;;5.09;94.73;99651.00;105354;1260;98600;-75
2023/04/13 05:19:37;;;;;;;68.10;40.80;;;;;;;5.19;95.39;99658.91;105374;1262;96700;-74
2023/04/13 05:22:31;;;;;;;67.30;41.90;;;;;;;5.27;95.37;99665.36;105484;1256;97118;-75
2023/04/13 05:25:22;;;;;;;80.30;49.00;;;;;;;5.36;95.74;99664.15;105356;1262;101247;-76
2023/04/13 05:28:09;;;;;;;74.20;42.40;;;;;;;5.46;96.27;99660.16;105510;1259;99148;-76
2023/04/13 05:31:02;;;;;;;71.70;42.00;;;;;;;5.56;96.92;99656.90;105528;1260;97673;-75
2023/04/13 05:33:49;;;;;;;75.40;42.90;;;;;;;5.67;97.42;99661.10;105153;1265;97887;-75
2023/04/13 05:36:35;;;;;;;96.10;50.40;;;;;;;5.78;97.70;99667.59;105139;1256;96740;-75
2023/04/13 05:39:23;;;;;;;94.10;50.00;;;;;;;5.88;98.26;99665.17;105267;1257;101287;-75
2023/04/13 05:42:08;;;;;;;84.90;47.50;;;;;;;6.00;98.52;99663.57;105206;1263;100072;-75
2023/04/13 05:44:58;;;;;;;86.20;48.70;;;;;;;6.11;98.72;99660.06;105243;1256;99435;-75
2023/04/13 05:47:44;;;;;;;86.50;47.50;;;;;;;6.22;99.14;99650.79;105322;1263;97097;-76
2023/04/13 05:50:32;;;;;;;87.00;48.50;;;;;;;6.36;99.34;99648.13;105180;1260;97145;-75
2023/04/13 05:53:18;;;;;;;83.70;48.00;;;;;;;6.49;99.39;99646.92;105166;1263;100651;-75
2023/04/13 05:56:11;;;;;;;76.80;46.90;;;;;;;6.61;99.31;99643.08;105239;1263;99259;-75
2023/04/13 05:58:57;;;;;;;72.40;44.00;;;;;;;6.75;99.46;99641.05;105108;1264;97900;-75
2023/04/13 06:01:45;;;;;;;76.70;42.50;;;;;;;6.87;99.63;99642.68;105271;1269;96539;-75
2023/04/13 06:04:30;;;;;;;69.10;41.90;;;;;;;7.01;99.55;99642.98;105172;1260;96005;-75
2023/04/13 06:07:16;;;;;;;68.20;39.60;;;;;;;7.13;99.14;99644.63;105366;1263;100082;-76
2023/04/13 06:33:15;;;;;;;55.80;35.50;;;;;;;8.21;96.58;99657.92;103240;1281;639149;-75
2023/04/13 06:36:01;;;;;;;51.10;33.30;;;;;;;8.59;95.91;99660.27;104797;1266;95886;-75
2023/04/13 06:51:10;;;;;;;39.10;28.30;;;;;;;9.31;94.28;99657.10;103396;1286;639440;-78
2023/04/13 06:53:58;;;;;;;39.80;27.80;;;;;;;9.68;93.16;99660.05;104531;1271;100132;-74
2023/04/13 06:56:44;;;;;;;40.00;26.60;;;;;;;9.71;93.04;99660.84;104890;1269;96180;-74
2023/04/13 06:59:29;;;;;;;41.60;26.40;;;;;;;9.75;92.68;99661.41;104715;1269;98541;-73
2023/04/13 07:02:15;;;;;;;35.80;24.20;;;;;;;9.79;92.09;99663.40;104647;1264;99362;-73
2023/04/13 07:05:01;;;;;;;30.80;22.80;;;;;;;9.83;91.72;99664.75;104670;1269;100192;-74
2023/04/13 07:07:47;;;;;;;30.80;20.00;;;;;;;9.89;91.03;99666.45;104916;1269;97262;-74
2023/04/13 07:10:36;;;;;;;26.10;17.90;;;;;;;9.95;89.93;99665.71;105118;1265;96008;-75
2023/04/13 07:13:25;;;;;;;34.80;19.80;;;;;;;10.00;89.10;99670.31;104736;1264;99527;-76
2023/04/13 07:16:12;;;;;;;26.60;18.00;;;;;;;10.07;89.35;99670.13;104779;1264;99871;-76
2023/04/13 07:19:00;;;;;;;20.90;15.50;;;;;;;10.14;88.22;99670.96;104685;1269;99386;-73
2023/04/13 07:21:46;;;;;;;23.90;15.20;;;;;;;10.20;87.83;99672.45;104754;1268;96328;-74
2023/04/13 07:24:34;;;;;;;20.00;13.10;;;;;;;10.30;87.06;99667.42;105059;1274;96010;-75
2023/04/13 07:27:21;;;;;;;18.70;12.90;;;;;;;10.37;85.25;99662.34;104843;1263;98661;-75
2023/04/13 07:30:07;;;;;;;19.10;13.10;;;;;;;10.43;85.12;99654.80;104986;1261;100337;-74
2023/04/13 07:32:56;;;;;;;24.00;16.50;;;;;;;10.53;84.81;99649.96;105149;1267;98686;-74
2023/04/13 07:35:41;;;;;;;15.70;10.90;;;;;;;10.64;84.84;99644.13;104802;1269;95938;-74
2023/04/13 07:38:28;;;;;;;17.90;12.70;;;;;;;10.75;83.86;99640.80;104885;1276;95975;-75
2023/04/13 07:41:14;;;;;;;11.90;9.70;;;;;;;10.84;83.37;99642.45;105150;1266;100658;-73
2023/04/13 07:44:02;;;;;;;14.80;11.40;;;;;;;10.98;82.83;99646.64;105038;1259;101565;-75
2023/04/13 07:46:47;;;;;;;11.70;8.40;;;;;;;11.10;81.19;99644.36;104923;1267;97865;-76
2023/04/13 07:49:36;;;;;;;11.30;9.20;;;;;;;11.18;80.58;99644.14;104970;1261;95908;-75
2023/04/13 07:52:24;;;;;;;10.00;7.80;;;;;;;11.28;80.08;99646.84;104795;1268;96445;-73
2023/04/13 07:55:10;;;;;;;10.70;9.10;;;;;;;11.35;77.91;99642.69;104729;1267;99881;-73
2023/04/13 07:58:00;;;;;;;9.40;7.60;;;;;;;11.40;77.22;99640.92;97807;1267;10004172;-75
2023/04/13 08:00:46;;;;;;;8.00;7.00;;;;;;;11.45;76.12;99644.06;105220;1267;95768;-73
2023/04/13 08:03:33;;;;;;;7.80;6.90;;;;;;;11.48;75.45;99648.95;105056;1264;99455;-74
2023/04/13 08:06:20;;;;;;;12.10;8.30;;;;;;;11.48;74.42;99647.55;105054;1264;100444;-73
2023/04/13 08:09:06;;;;;;;13.00;10.70;;;;;;;11.52;75.25;99642.73;104938;1274;99073;-74
2023/04/13 08:11:51;;;;;;;7.80;7.00;;;;;;;11.58;75.57;99643.48;104929;1270;95951;-74
2023/04/13 08:14:37;;;;;;;9.00;7.20;;;;;;;11.68;75.28;99648.52;105058;1264;97145;-74
2023/04/13 08:17:23;;;;;;;8.20;6.40;;;;;;;11.79;75.53;99645.68;104960;1264;98641;-73
2023/04/13 08:20:09;;;;;;;9.50;7.10;;;;;;;11.90;74.42;99644.11;104944;1270;99866;-73
2023/04/13 08:22:55;;;;;;;10.10;7.00;;;;;;;11.96;73.53;99648.04;104960;1265;97821;-74
2023/04/13 08:25:40;;;;;;;8.00;6.80;;;;;;;12.01;72.47;99650.17;104953;1274;95902;-74
2023/04/13 08:28:26;;;;;;;9.70;7.10;;;;;;;12.08;73.06;99652.02;104797;1270;95896;-74
2023/04/13 08:31:11;;;;;;;9.10;7.30;;;;;;;12.16;73.42;99651.70;104806;1267;99898;-74
2023/04/13 08:33:58;;;;;;;10.60;7.40;;;;;;;12.22;72.69;99655.33;104786;1276;99721;-74
2023/04/13 08:36:47;;;;;;;10.40;8.40;;;;;;;12.28;73.16;99652.88;104884;1260;97807;-75
2023/04/13 08:39:32;;;;;;;10.70;7.90;;;;;;;12.34;72.35;99655.34;104961;1264;95847;-74
2023/04/13 08:42:19;;;;;;;10.30;8.60;;;;;;;12.38;71.67;99651.64;104977;1260;97077;-73
2023/04/13 08:45:07;;;;;;;11.10;9.10;;;;;;;12.42;71.68;99645.30;104817;1260;98794;-74
2023/04/13 08:47:55;;;;;;;11.80;9.10;;;;;;;12.47;71.22;99645.35;104862;1274;99159;-74
2023/04/13 08:50:42;;;;;;;10.80;8.90;;;;;;;12.55;71.30;99644.33;104789;1266;100011;-74
2023/04/13 08:53:28;;;;;;;13.50;10.90;;;;;;;12.67;71.26;99643.65;104963;1267;96300;-74
2023/04/13 08:56:15;;;;;;;14.30;10.00;;;;;;;12.76;71.28;99645.61;104863;1267;96986;-73
2023/04/13 08:59:06;;;;;;;11.90;9.70;;;;;;;12.85;71.37;99647.58;105321;1260;99978;-73
2023/04/13 09:01:52;;;;;;;;;;;;;;;12.89;71.15;99644.23;104907;1261;99844;-73
2023/04/13 09:04:42;;;;;;;13.70;10.90;;;;;;;12.91;71.11;99641.52;104938;1274;97663;-73
2023/04/13 09:07:31;;;;;;;15.10;12.20;;;;;;;12.92;71.34;99645.14;104833;1266;95796;-73
2023/04/13 09:10:20;;;;;;;14.40;11.00;;;;;;;12.94;70.40;99642.30;105297;1264;95985;-74
2023/04/13 09:13:06;;;;;;;13.80;11.20;;;;;;;12.94;69.90;99643.34;104856;1261;100364;-74
2023/04/13 09:15:52;;;;;;;16.50;10.40;;;;;;;12.93;68.90;99642.65;104843;1271;100502;-73
2023/04/13 09:18:56;;;;;;;17.00;10.60;;;;;;;12.91;69.38;99642.09;105071;1264;99399;-74
2023/04/13 09:21:43;;;;;;;16.10;11.00;;;;;;;12.95;69.65;99639.23;105006;1261;97227;-74
2023/04/13 09:24:38;;;;;;;17.20;12.20;;;;;;;12.99;69.21;99643.48;105062;1266;95878;-74
2023/04/13 09:27:24;;;;;;;16.00;11.60;;;;;;;13.00;69.35;99636.35;104992;1264;98783;-75
2023/04/13 09:30:10;;;;;;;17.10;11.40;;;;;;;13.04;69.86;99638.64;104926;1264;100091;-74
2023/04/13 09:33:03;;;;;;;15.20;12.20;;;;;;;13.11;69.75;99642.20;104981;1264;97701;-75
2023/04/13 09:35:48;;;;;;;17.80;11.30;;;;;;;13.18;68.81;99640.23;105025;1264;95885;-73
2023/04/13 09:38:34;;;;;;;14.70;11.60;;;;;;;13.21;68.66;99641.39;105028;1260;95876;-74
2023/04/13 09:41:35;;;;;;;13.80;10.90;;;;;;;13.26;69.20;99644.13;105029;1264;99881;-74
2023/04/13 09:44:26;;;;;;;14.30;10.60;;;;;;;13.40;69.20;99651.71;104932;1260;99217;-74
2023/04/13 09:47:12;;;;;;;14.00;10.70;;;;;;;13.52;69.04;99650.85;105012;1267;98874;-74
2023/04/13 09:49:57;;;;;;;15.70;11.20;;;;;;;13.61;68.64;99654.96;104910;1268;95911;-75
2023/04/13 09:52:44;;;;;;;15.50;11.10;;;;;;;13.65;67.65;99654.92;105015;1261;95982;-75
2023/04/13 09:55:31;;;;;;;14.30;10.30;;;;;;;13.67;67.85;99654.39;104977;1260;100016;-75
2023/04/13 09:58:17;;;;;;;14.20;11.20;;;;;;;13.73;67.80;99654.14;104937;1261;100652;-75
2023/04/13 10:01:03;;;;;;;11.70;9.30;;;;;;;13.80;67.18;99657.67;104973;1264;99300;-74
2023/04/13 10:03:48;;;;;;;11.40;9.00;;;;;;;13.87;66.51;99661.98;104885;1264;95908;-74
2023/04/13 10:06:39;;;;;;;9.30;7.40;;;;;;;13.92;65.94;99658.56;104969;1260;95911;-74
2023/04/13 10:09:25;;;;;;;9.80;6.90;;;;;;;14.02;65.64;99661.23;104994;1264;98752;-74
2023/04/13 10:12:12;;;;;;;8.20;6.40;;;;;;;14.16;65.27;99668.38;105283;1263;99361;-74
2023/04/13 10:15:13;;;;;;;12.10;6.20;;;;;;;14.27;63.86;99666.83;104985;1260;99520;-74
2023/04/13 10:18:15;;;;;;;9.70;6.20;;;;;;;14.36;62.59;99665.27;105009;1260;96054;-74
2023/04/13 10:21:03;;;;;;;9.50;5.90;;;;;;;14.38;60.75;99660.52;106950;1260;95758;-74
2023/04/13 10:23:49;;;;;;;10.20;5.70;;;;;;;14.39;60.37;99661.46;104779;1266;98631;-74
2023/04/13 10:26:38;;;;;;;9.60;6.60;;;;;;;14.42;59.85;99657.63;105356;1266;99789;-76
2023/04/13 10:29:28;;;;;;;9.60;6.40;;;;;;;14.44;59.26;99652.75;104678;1268;98359;-75
2023/04/13 10:32:24;;;;;;;7.80;5.90;;;;;;;14.46;59.18;99651.30;104671;1269;97215;-74
2023/04/13 10:35:12;;;;;;;10.60;6.90;;;;;;;14.55;59.39;99649.73;104639;1269;97224;-74
2023/04/13 10:37:57;;;;;;;8.80;6.20;;;;;;;14.65;59.42;99647.89;104479;1272;99943;-74
2023/04/13 10:40:45;;;;;;;8.00;6.10;;;;;;;14.76;58.68;99646.73;104743;1270;99697;-75
2023/04/13 10:43:31;;;;;;;7.90;6.40;;;;;;;14.81;58.23;99645.50;104955;1271;97761;-76
2023/04/13 10:46:16;;;;;;;8.20;6.30;;;;;;;14.90;58.29;99644.33;104626;1269;97381;-76
2023/04/13 10:49:03;;;;;;;8.00;5.50;;;;;;;14.94;56.86;99642.71;104731;1267;96856;-76
2023/04/13 10:51:49;;;;;;;6.20;5.10;;;;;;;14.99;57.24;99644.42;104776;1269;98672;-75
2023/04/13 10:54:36;;;;;;;6.30;5.50;;;;;;;15.04;56.42;99644.05;104676;1268;99718;-75
2023/04/13 10:57:21;;;;;;;9.50;5.60;;;;;;;15.09;56.59;99643.94;104613;1269;97886;-74
2023/04/13 11:00:20;;;;;;;9.00;5.40;;;;;;;15.19;56.82;99648.95;104606;1267;95908;-73
2023/04/13 11:03:07;;;;;;;7.40;6.10;;;;;;;15.26;56.48;99646.44;104569;1268;96003;-75
2023/04/13 11:05:58;;;;;;;7.50;6.10;;;;;;;15.30;55.97;99642.04;104677;1270;98950;-74
2023/04/13 11:08:43;;;;;;;8.00;6.40;;;;;;;15.33;56.06;99642.76;104754;1269;99088;-74
2023/04/13 11:11:28;;;;;;;8.10;6.50;;;;;;;15.39;55.01;99643.29;104726;1269;99372;-75
2023/04/13 11:14:21;;;;;;;7.40;5.90;;;;;;;15.36;54.53;99636.77;104728;1271;97806;-74
2023/04/13 11:17:12;;;;;;;7.40;6.00;;;;;;;15.34;55.38;99636.13;104790;1265;96011;-75
2023/04/13 11:19:58;;;;;;;;;;;;;;;15.36;55.15;99638.17;104658;1271;98645;-76
2023/04/13 11:22:44;;;;;;;;;;;;;;;15.34;55.27;99635.46;104745;1270;100489;-75
2023/04/13 11:25:29;;;;;;;;;;;;;;;15.30;55.26;99635.23;104685;1269;97767;-75
2023/04/13 11:28:15;;;;;;;;;;;;;;;15.29;55.61;99635.02;104880;1267;95958;-75
2023/04/13 11:31:00;;;;;;;;;;;;;;;15.34;55.98;99633.31;104740;1270;97175;-76
2023/04/13 11:33:47;;;;;;;;;;;;;;;15.40;55.72;99635.27;104778;1269;99996;-75
2023/04/13 11:36:33;;;;;;;;;;;;;;;15.41;55.28;99635.27;104638;1269;108734;-75
2023/04/13 11:39:19;;;;;;;;;;;;;;;15.36;54.09;99630.77;104708;1278;97752;-75
2023/04/13 11:42:05;;;;;;;;;;;;;;;15.29;54.40;99635.34;104661;1270;96590;-76
2023/04/13 11:44:52;;;;;;;;;;;;;;;15.30;53.50;99632.20;104759;1270;97324;-75
2023/04/13 11:47:37;;;;;;;;;;;;;;;15.30;53.24;99635.56;104753;1279;101255;-74
2023/04/13 11:50:24;;;;;;;;;;;;;;;15.32;53.50;99633.23;104702;1277;99424;-75
2023/04/13 11:53:10;;;;;;;;;;;;;;;15.38;53.31;99632.21;104672;1270;97774;-75
2023/04/13 11:55:56;;;;;;;;;;;;;;;15.44;53.23;99635.52;104707;1271;96625;-75
2023/04/13 11:58:41;;;;;;;;;;;;;;;15.53;53.18;99635.09;104661;1267;96723;-75
2023/04/13 12:01:28;;;;;;;;;;;;;;;15.68;52.67;99634.50;104672;1264;100069;-75
2023/04/13 12:04:14;;;;;;;;;;;;;;;15.83;50.77;99635.64;104762;1264;108915;-74
2023/04/13 12:06:59;;;;;;;;;;;;;;;15.95;51.31;99638.29;104716;1268;97909;-75
2023/04/13 12:09:46;;;;;;;;;;;;;;;16.05;50.78;99640.13;104770;1266;97829;-75
2023/04/13 12:12:31;;;;;;;;;;;;;;;16.12;50.53;99640.13;105634;1266;97205;-75
2023/04/13 12:15:22;;;;;;;;;;;;;;;16.20;51.49;99639.99;104652;1269;108473;-75
2023/04/13 12:18:11;;;;;;;;;;;;;;;16.21;50.39;99635.84;105649;1268;101206;-76
2023/04/13 12:20:59;;;;;;;;;;;;;;;16.22;50.43;99636.61;104781;1269;97717;-76
2023/04/13 12:23:54;;;;;;;;;;;;;;;16.30;51.10;99636.05;104719;1269;97117;-74
2023/04/13 12:26:40;;;;;;;;;;;;;;;16.36;51.27;99637.26;104841;1264;96530;-76
2023/04/13 12:29:26;;;;;;;;;;;;;;;16.37;50.16;99632.99;104647;1270;101184;-74
2023/04/13 12:32:15;;;;;;;;;;;;;;;16.31;50.69;99632.86;105051;1271;99776;-82
2023/04/13 12:35:00;;;;;;;;;;;;;;;16.23;50.75;99635.02;105838;1266;97771;-77
2023/04/13 12:37:47;;;;;;;;;;;;;;;16.17;50.68;99636.59;105838;1264;96828;-83
2023/04/13 12:40:33;;;;;;;;;;;;;;;16.12;51.36;99632.47;105495;1267;96507;-78
2023/04/13 12:43:18;;;;;;;;;;;;;;;16.12;51.05;99632.40;105185;1270;99990;-83
2023/04/13 12:46:04;;;;;;;;;;;;;;;16.12;50.19;99630.46;106398;1257;100387;-81
2023/04/13 12:48:50;;;;;;;;;;;;;;;16.18;50.47;99632.72;106461;1260;99289;-79
2023/04/13 12:51:35;;;;;;;;;;;;;;;16.26;48.91;99631.16;105492;1257;97206;-79
2023/04/13 12:54:21;;;;;;;;;;;;;;;16.32;49.09;99629.59;105598;1257;96600;-79
2023/04/13 12:57:07;;;;;;;;;;;;;;;16.43;48.58;99628.17;105251;1256;101770;-76
2023/04/13 12:59:53;;;;;;;;;;;;;;;16.55;48.42;99626.70;105316;1260;99094;-79
2023/04/13 13:02:38;;;;;;;;;;;;;;;16.71;45.28;99624.82;105887;1257;99406;-82
2023/04/13 13:05:24;;;;;;;;;;;;;;;16.86;43.69;99622.16;106235;1260;97447;-79
2023/04/13 13:08:09;;;;;;;;;;;;;;;16.93;43.10;99614.80;105844;1257;96403;-81
2023/04/13 13:10:55;;;;;;;;;;;;;;;17.02;42.54;99613.00;106128;1261;100013;-77
2023/04/13 13:13:41;;;;;;;;;;;;;;;17.10;41.59;99608.44;105244;1260;99230;-82
2023/04/13 13:16:26;;;;;;;;;;;;;;;17.15;41.85;99607.95;106139;1258;98473;-76
2023/04/13 13:19:12;;;;;;;;;;;;;;;17.19;41.68;99607.90;105176;1258;97126;-76
2023/04/13 13:21:59;;;;;;;;;;;;;;;17.26;42.79;99605.88;105227;1257;97192;-77
2023/04/13 13:24:45;;;;;;;;;;;;;;;17.39;42.35;99603.30;105160;1257;101102;-75
2023/04/13 13:27:31;;;;;;;;;;;;;;;17.52;42.64;99604.87;106248;1260;100515;-82
2023/04/13 13:30:17;;;;;;;;;;;;;;;17.61;41.58;99599.49;106274;1257;97792;-82
2023/04/13 13:33:02;;;;;;;;;;;;;;;17.65;41.11;99595.46;106197;1261;96556;-86
2023/04/13 13:35:48;;;;;;;;;;;;;;;17.74;42.56;99599.60;106310;1262;96539;-87
2023/04/13 13:38:34;;;;;;;;;;;;;;;17.86;43.28;99604.05;106347;1257;100019;-81
2023/04/13 13:41:21;;;;;;;;;;;;;;;17.88;42.94;99605.65;106257;1257;100433;-85